createdAt,value
2022-11-23T00:01:16.573Z,5.77
2022-11-23T00:03:44.124Z,6.80
2022-11-23T00:06:10.970Z,7.30
2022-11-23T00:08:37.474Z,6.07
2022-11-23T00:11:04.104Z,6.87
2022-11-23T00:13:31.042Z,7.00
2022-11-23T00:15:57.549Z,5.80
2022-11-23T00:18:24.015Z,5.20
2022-11-23T00:20:50.542Z,3.93
2022-11-23T00:23:17.075Z,4.40
2022-11-23T00:25:46.970Z,4.60
2022-11-23T00:28:13.832Z,4.93
2022-11-23T00:30:40.307Z,4.70
2022-11-23T00:33:06.827Z,4.90
2022-11-23T00:35:33.408Z,5.13
2022-11-23T00:37:59.863Z,4.60
2022-11-23T00:40:26.486Z,4.53
2022-11-23T00:42:52.926Z,3.70
2022-11-23T00:45:19.413Z,5.00
2022-11-23T00:47:45.860Z,4.73
2022-11-23T00:50:12.353Z,6.03
2022-11-23T00:52:38.780Z,5.43
2022-11-23T00:55:05.573Z,5.00
2022-11-23T00:57:33.528Z,5.33
2022-11-23T01:00:00.292Z,5.33
2022-11-23T01:02:26.822Z,5.67
2022-11-23T01:04:53.302Z,5.27
2022-11-23T01:07:19.733Z,5.33
2022-11-23T01:09:46.381Z,5.40
2022-11-23T01:12:12.908Z,5.07
2022-11-23T01:14:39.459Z,5.07
2022-11-23T01:17:06.128Z,4.00
2022-11-23T01:19:32.784Z,4.73
2022-11-23T01:21:59.410Z,5.60
2022-11-23T01:24:26.059Z,5.37
2022-11-23T01:26:54.323Z,4.90
2022-11-23T01:29:22.032Z,4.93
2022-11-23T01:31:48.548Z,5.00
2022-11-23T01:34:15.585Z,6.10
2022-11-23T01:36:42.559Z,6.60
2022-11-23T01:39:10.853Z,5.33
2022-11-23T01:41:40.322Z,5.80
2022-11-23T01:44:24.347Z,5.53
2022-11-23T01:46:50.867Z,4.20
2022-11-23T01:49:17.497Z,4.23
2022-11-23T01:51:45.830Z,4.90
2022-11-23T01:54:18.911Z,5.37
2022-11-23T01:56:53.310Z,4.53
2022-11-23T01:59:20.291Z,4.70
2022-11-23T02:01:47.042Z,5.00
2022-11-23T02:04:18.416Z,5.60
2022-11-23T02:06:46.717Z,6.30
2022-11-23T02:09:14.721Z,5.73
2022-11-23T02:11:41.199Z,5.60
2022-11-23T02:14:07.871Z,4.90
2022-11-23T02:16:35.191Z,4.80
2022-11-23T02:19:01.647Z,4.30
2022-11-23T02:21:28.542Z,5.37
2022-11-23T02:24:09.083Z,4.97
2022-11-23T02:26:36.334Z,6.00
2022-11-23T02:29:05.622Z,4.93
2022-11-23T02:31:32.727Z,5.57
2022-11-23T02:33:59.243Z,5.07
2022-11-23T02:36:41.224Z,4.10
2022-11-23T02:39:14.222Z,5.30
2022-11-23T02:41:47.061Z,5.90
2022-11-23T02:44:41.286Z,5.30
2022-11-23T02:47:09.389Z,5.90
2022-11-23T02:49:35.976Z,4.97
2022-11-23T02:52:03.735Z,5.30
2022-11-23T02:54:30.215Z,5.33
2022-11-23T02:56:57.064Z,7.67
2022-11-23T02:59:23.531Z,5.40
2022-11-23T03:01:49.990Z,5.93
2022-11-23T03:04:16.644Z,5.37
2022-11-23T03:06:43.086Z,5.03
2022-11-23T03:09:09.693Z,5.10
2022-11-23T03:11:36.231Z,4.53
2022-11-23T03:14:02.979Z,4.23
2022-11-23T03:16:29.739Z,4.80
2022-11-23T03:18:56.550Z,3.77
2022-11-23T03:21:23.092Z,4.53
2022-11-23T03:23:49.632Z,5.20
2022-11-23T03:26:16.114Z,4.90
2022-11-23T03:28:42.700Z,4.57
2022-11-23T03:31:09.366Z,4.17
2022-11-23T03:33:35.930Z,4.30
2022-11-23T03:36:02.394Z,4.20
2022-11-23T03:38:28.834Z,3.83
2022-11-23T03:40:55.298Z,4.00
2022-11-23T03:43:23.248Z,4.17
2022-11-23T03:45:49.826Z,4.60
2022-11-23T03:48:16.686Z,4.63
2022-11-23T03:50:44.542Z,4.20
2022-11-23T03:53:11.825Z,4.90
2022-11-23T03:55:38.286Z,4.43
2022-11-23T03:58:05.354Z,4.37
2022-11-23T04:00:31.902Z,5.20
2022-11-23T04:02:58.674Z,5.03
2022-11-23T04:05:25.159Z,3.73
2022-11-23T04:07:51.693Z,4.60
2022-11-23T04:10:19.074Z,4.63
2022-11-23T04:12:45.861Z,5.77
2022-11-23T04:15:12.462Z,4.27
2022-11-23T04:17:39.023Z,3.93
2022-11-23T04:20:06.232Z,4.17
2022-11-23T04:22:32.758Z,4.87
2022-11-23T04:24:59.294Z,3.87
2022-11-23T04:27:25.774Z,4.10
2022-11-23T04:29:52.249Z,4.67
2022-11-23T04:32:18.677Z,4.60
2022-11-23T04:34:45.191Z,4.23
2022-11-23T04:37:13.667Z,3.83
2022-11-23T04:39:40.830Z,4.23
2022-11-23T04:42:07.296Z,4.53
2022-11-23T04:44:33.791Z,3.47
2022-11-23T04:47:00.272Z,4.90
2022-11-23T04:49:27.214Z,4.70
2022-11-23T04:51:53.704Z,4.73
2022-11-23T04:54:20.181Z,4.83
2022-11-23T04:56:46.676Z,4.33
2022-11-23T04:59:13.545Z,4.43
2022-11-23T05:01:40.036Z,4.13
2022-11-23T05:04:06.646Z,4.70
2022-11-23T05:06:33.142Z,4.10
2022-11-23T05:08:59.626Z,4.53
2022-11-23T05:11:27.122Z,4.03
2022-11-23T05:13:53.609Z,4.33
2022-11-23T05:16:20.198Z,4.70
2022-11-23T05:18:46.633Z,4.67
2022-11-23T05:21:13.226Z,4.40
2022-11-23T05:23:39.798Z,4.90
2022-11-23T05:26:06.460Z,5.37
2022-11-23T05:28:41.187Z,4.10
2022-11-23T05:31:08.365Z,4.40
2022-11-23T05:33:35.314Z,5.13
2022-11-23T05:36:02.005Z,4.73
2022-11-23T05:38:28.486Z,4.57
2022-11-23T05:40:54.980Z,5.00
2022-11-23T05:43:21.476Z,4.77
2022-11-23T05:45:47.990Z,5.50
2022-11-23T05:48:14.540Z,5.90
2022-11-23T05:50:41.031Z,5.90
2022-11-23T05:53:07.551Z,4.50
2022-11-23T05:55:33.994Z,5.00
2022-11-23T05:58:01.326Z,4.73
2022-11-23T06:00:27.775Z,5.10
2022-11-23T06:03:00.492Z,4.20
2022-11-23T06:05:27.512Z,4.33
2022-11-23T06:07:54.078Z,5.47
2022-11-23T06:10:22.617Z,5.57
2022-11-23T06:12:52.727Z,6.13
2022-11-23T06:15:19.406Z,5.63
2022-11-23T06:17:46.202Z,5.20
2022-11-23T06:20:12.782Z,5.63
2022-11-23T06:22:39.311Z,5.93
2022-11-23T06:25:06.250Z,5.57
2022-11-23T06:27:32.814Z,6.00
2022-11-23T06:29:59.330Z,6.03
2022-11-23T06:32:25.799Z,5.77
2022-11-23T06:34:53.849Z,5.60
2022-11-23T06:37:22.146Z,4.80
2022-11-23T06:39:48.667Z,4.77
2022-11-23T06:42:37.691Z,6.00
2022-11-23T06:45:01.689Z,5.13
2022-11-23T06:47:29.047Z,6.30
2022-11-23T06:49:55.554Z,5.87
2022-11-23T06:52:22.094Z,4.87
2022-11-23T06:54:48.584Z,5.97
2022-11-23T06:57:15.089Z,5.47
2022-11-23T06:59:44.729Z,5.77
2022-11-23T07:02:12.499Z,5.53
2022-11-23T07:04:39.090Z,5.40
2022-11-23T07:07:07.847Z,5.37
2022-11-23T07:09:34.669Z,4.80
2022-11-23T07:12:01.631Z,5.73
2022-11-23T07:14:28.194Z,5.70
2022-11-23T07:16:54.721Z,5.43
2022-11-23T07:19:21.187Z,5.43
2022-11-23T07:21:47.658Z,5.00
2022-11-23T07:24:14.297Z,5.13
2022-11-23T07:26:41.520Z,6.00
2022-11-23T07:29:07.994Z,5.37
2022-11-23T07:31:34.505Z,5.17
2022-11-23T07:34:01.068Z,6.10
2022-11-23T07:36:27.577Z,4.40
2022-11-23T07:38:54.065Z,5.67
2022-11-23T07:41:20.541Z,5.73
2022-11-23T07:43:47.047Z,6.43
2022-11-23T07:46:13.492Z,7.10
2022-11-23T07:48:39.959Z,8.20
2022-11-23T07:51:06.509Z,7.93
2022-11-23T07:53:33.029Z,7.57
2022-11-23T07:55:59.518Z,7.20
2022-11-23T07:58:26.066Z,7.83
2022-11-23T08:00:53.262Z,6.70
2022-11-23T08:03:27.698Z,6.47
2022-11-23T08:05:55.346Z,6.37
2022-11-23T08:08:22.102Z,6.10
2022-11-23T08:10:52.932Z,7.63
2022-11-23T08:13:20.947Z,6.73
2022-11-23T08:15:53.940Z,6.13
2022-11-23T08:18:21.500Z,4.70
2022-11-23T08:20:48.183Z,5.10
2022-11-23T08:23:14.765Z,4.37
2022-11-23T08:25:41.356Z,4.57
2022-11-23T08:28:07.842Z,3.70
2022-11-23T08:30:35.190Z,4.20
2022-11-23T08:33:05.734Z,5.20
2022-11-23T08:35:36.721Z,5.00
2022-11-23T08:38:07.994Z,5.43
2022-11-23T08:40:35.007Z,5.77
2022-11-23T08:43:01.500Z,4.93
2022-11-23T08:45:28.234Z,5.70
2022-11-23T08:47:55.710Z,4.50
2022-11-23T08:50:22.987Z,4.27
2022-11-23T08:52:55.987Z,5.07
2022-11-23T08:55:22.592Z,4.23
2022-11-23T08:57:49.133Z,3.70
2022-11-23T09:00:16.282Z,4.03
2022-11-23T09:02:42.814Z,3.93
2022-11-23T09:05:09.564Z,3.63
2022-11-23T09:07:36.063Z,3.03
2022-11-23T09:10:02.687Z,3.60
2022-11-23T09:12:29.202Z,4.17
2022-11-23T09:14:55.906Z,3.53
2022-11-23T09:17:22.468Z,3.27
2022-11-23T09:19:50.288Z,4.00
2022-11-23T09:22:16.906Z,4.37
2022-11-23T09:24:43.479Z,3.53
2022-11-23T09:27:10.022Z,3.20
2022-11-23T09:29:36.487Z,4.20
2022-11-23T09:32:03.343Z,3.87
2022-11-23T09:34:30.127Z,3.40
2022-11-23T09:36:57.293Z,4.07
2022-11-23T09:39:23.822Z,3.60
2022-11-23T09:42:05.281Z,4.20
2022-11-23T09:44:45.182Z,4.20
2022-11-23T09:47:17.396Z,3.17
2022-11-23T09:50:06.052Z,3.50
2022-11-23T09:52:32.854Z,3.07
2022-11-23T09:55:05.497Z,3.20
2022-11-23T09:57:34.227Z,3.60
2022-11-23T10:00:06.110Z,3.07
2022-11-23T10:02:36.903Z,3.10
2022-11-23T10:05:04.274Z,3.60
2022-11-23T10:07:44.405Z,3.43
2022-11-23T10:10:26.471Z,3.77
2022-11-23T10:13:11.504Z,2.87
2022-11-23T10:16:11.930Z,2.63
2022-11-23T10:18:50.679Z,2.80
2022-11-23T10:21:32.273Z,2.97
2022-11-23T10:24:07.955Z,3.97
2022-11-23T10:26:39.068Z,3.70
2022-11-23T10:29:38.178Z,3.20
2022-11-23T10:32:22.404Z,3.90
2022-11-23T10:34:56.404Z,2.43
2022-11-23T10:37:23.121Z,3.40
2022-11-23T10:39:49.884Z,3.07
2022-11-23T10:42:24.793Z,4.00
2022-11-23T10:44:52.568Z,2.90
2022-11-23T10:47:35.626Z,3.40
2022-11-23T10:50:02.199Z,3.50
2022-11-23T10:52:31.313Z,4.03
2022-11-23T10:55:00.142Z,2.90
2022-11-23T10:57:42.454Z,3.93
2022-11-23T11:00:15.154Z,3.60
2022-11-23T11:02:47.692Z,4.50
2022-11-23T11:06:07.418Z,3.87
2022-11-23T11:08:30.319Z,3.70
2022-11-23T11:11:05.420Z,3.53
2022-11-23T11:13:40.460Z,3.70
2022-11-23T11:16:22.489Z,4.03
2022-11-23T11:18:49.063Z,4.10
2022-11-23T11:21:21.783Z,4.63
2022-11-23T11:23:54.625Z,3.70
2022-11-23T11:26:23.446Z,4.50
2022-11-23T11:28:51.897Z,3.57
2022-11-23T11:31:33.769Z,3.90
2022-11-23T11:34:33.306Z,3.90
2022-11-23T11:37:14.090Z,3.90
2022-11-23T11:39:54.292Z,4.47
2022-11-23T11:42:27.409Z,4.27
2022-11-23T11:44:55.367Z,4.33
2022-11-23T11:47:32.236Z,4.40
2022-11-23T11:50:01.711Z,3.70
2022-11-23T11:52:33.200Z,3.80
2022-11-23T11:55:03.313Z,4.17
2022-11-23T11:57:36.014Z,5.10
2022-11-23T12:00:07.086Z,3.63
2022-11-23T12:02:43.294Z,3.83
2022-11-23T12:05:48.124Z,3.17
2022-11-23T12:08:36.780Z,4.57
2022-11-23T12:11:05.768Z,3.23
2022-11-23T12:13:34.542Z,3.33
2022-11-23T12:16:22.268Z,2.73
2022-11-23T12:18:51.855Z,3.27
2022-11-23T12:21:52.735Z,4.17
2022-11-23T12:24:43.261Z,3.00
2022-11-23T12:27:48.996Z,4.00
2022-11-23T12:30:21.811Z,4.10
2022-11-23T12:33:03.461Z,4.20
2022-11-23T12:35:33.268Z,4.07
2022-11-23T12:37:59.797Z,3.30
2022-11-23T12:40:38.880Z,3.53
2022-11-23T12:43:11.498Z,3.80
2022-11-23T12:45:50.993Z,3.47
2022-11-23T12:48:23.043Z,4.00
2022-11-23T12:50:52.462Z,4.20
2022-11-23T12:53:46.058Z,4.30
2022-11-23T12:56:30.752Z,4.10
2022-11-23T12:58:58.317Z,3.60
2022-11-23T13:01:32.642Z,3.60
2022-11-23T13:04:11.028Z,4.93
2022-11-23T13:07:26.814Z,4.47
2022-11-23T13:09:57.749Z,3.97
2022-11-23T13:12:43.149Z,3.70
2022-11-23T13:15:26.184Z,2.77
2022-11-23T13:18:19.208Z,4.57
2022-11-23T13:20:57.779Z,4.50
2022-11-23T13:23:24.318Z,8.90
2022-11-23T13:26:12.512Z,4.43
2022-11-23T13:28:38.995Z,3.43
2022-11-23T13:31:17.589Z,3.70
2022-11-23T13:33:46.077Z,3.80
2022-11-23T13:37:04.539Z,3.57
2022-11-23T13:39:39.695Z,4.00
2022-11-23T13:42:06.204Z,3.57
2022-11-23T13:44:33.480Z,3.93
2022-11-23T13:47:14.744Z,3.70
2022-11-23T13:49:44.268Z,3.17
2022-11-23T13:52:22.975Z,3.37
2022-11-23T13:55:18.383Z,3.10
2022-11-23T13:57:48.458Z,3.13
2022-11-23T14:00:45.712Z,5.00
2022-11-23T14:03:43.588Z,2.97
2022-11-23T14:06:22.021Z,3.10
2022-11-23T14:08:59.858Z,3.60
2022-11-23T14:11:27.326Z,4.17
2022-11-23T14:14:00.985Z,3.53
2022-11-23T14:17:07.899Z,3.43
2022-11-23T14:20:10.091Z,3.47
2022-11-23T14:22:36.491Z,2.90
2022-11-23T14:25:12.715Z,3.10
2022-11-23T14:28:06.454Z,3.03
2022-11-23T14:31:06.287Z,3.80
2022-11-23T14:33:56.267Z,3.87
2022-11-23T14:36:26.904Z,4.90
2022-11-23T14:39:27.232Z,4.30
2022-11-23T14:41:56.762Z,4.33
2022-11-23T14:44:27.551Z,5.03
2022-11-23T14:47:05.497Z,5.00
2022-11-23T14:49:32.998Z,5.40
2022-11-23T14:52:01.063Z,4.70
2022-11-23T14:54:30.089Z,10.33
2022-11-23T14:57:00.640Z,10.90
2022-11-23T14:59:32.502Z,6.93
2022-11-23T15:02:06.168Z,5.93
2022-11-23T15:04:38.143Z,5.07
2022-11-23T15:07:11.577Z,5.00
2022-11-23T15:09:58.007Z,5.53
2022-11-23T15:12:29.801Z,5.90
2022-11-23T15:14:59.995Z,6.07
2022-11-23T15:17:27.144Z,5.80
2022-11-23T15:19:58.738Z,6.20
2022-11-23T15:22:27.277Z,5.53
2022-11-23T15:24:53.946Z,5.23
2022-11-23T15:27:30.223Z,5.53
2022-11-23T15:29:59.038Z,6.23
2022-11-23T15:32:33.215Z,6.40
2022-11-23T15:35:03.717Z,8.03
2022-11-23T15:37:31.399Z,7.87
2022-11-23T15:39:58.214Z,7.40
2022-11-23T15:42:26.055Z,6.07
2022-11-23T15:44:53.741Z,6.13
2022-11-23T15:47:26.175Z,5.17
2022-11-23T15:50:00.804Z,4.30
2022-11-23T15:52:30.499Z,3.70
2022-11-23T15:54:58.144Z,4.27
2022-11-23T15:57:26.458Z,6.37
2022-11-23T15:59:57.724Z,7.57
2022-11-23T16:02:28.760Z,7.30
2022-11-23T16:05:15.078Z,8.60
2022-11-23T16:07:59.244Z,8.90
2022-11-23T16:10:27.500Z,8.00
2022-11-23T16:12:56.685Z,14.03
2022-11-23T16:15:27.271Z,19.60
2022-11-23T16:17:53.842Z,18.67
2022-11-23T16:20:22.125Z,19.00
2022-11-23T16:22:49.688Z,23.33
2022-11-23T16:25:27.077Z,18.83
2022-11-23T16:28:04.906Z,15.60
2022-11-23T16:30:40.599Z,14.00
2022-11-23T16:33:14.129Z,14.47
2022-11-23T16:35:40.591Z,12.83
2022-11-23T16:38:07.178Z,12.40
2022-11-23T16:40:33.840Z,12.60
2022-11-23T16:43:00.538Z,11.07
2022-11-23T16:45:27.939Z,11.70
2022-11-23T16:47:56.524Z,12.23
2022-11-23T16:50:23.849Z,11.70
2022-11-23T16:52:50.660Z,10.50
2022-11-23T16:55:17.117Z,11.10
2022-11-23T16:57:43.813Z,11.37
2022-11-23T17:00:24.048Z,10.83
2022-11-23T17:02:50.666Z,11.73
2022-11-23T17:05:21.447Z,11.37
2022-11-23T17:07:48.055Z,11.10
2022-11-23T17:10:14.965Z,10.80
2022-11-23T17:12:47.634Z,11.20
2022-11-23T17:15:14.210Z,11.23
2022-11-23T17:17:40.739Z,11.20
2022-11-23T17:20:12.555Z,11.70
2022-11-23T17:22:39.141Z,10.70
2022-11-23T17:25:13.052Z,10.83
2022-11-23T17:27:42.062Z,10.70
2022-11-23T17:30:17.429Z,9.33
2022-11-23T17:32:43.914Z,8.37
2022-11-23T17:35:10.687Z,11.60
2022-11-23T17:37:37.289Z,12.30
2022-11-23T17:40:04.031Z,14.43
2022-11-23T17:42:30.543Z,12.43
2022-11-23T17:44:57.350Z,11.87
2022-11-23T17:47:24.927Z,12.87
2022-11-23T17:49:51.547Z,12.73
2022-11-23T17:52:18.250Z,11.80
2022-11-23T17:54:44.780Z,10.07
2022-11-23T17:57:15.642Z,10.57
2022-11-23T17:59:42.437Z,10.10
2022-11-23T18:02:09.530Z,10.37
2022-11-23T18:04:36.635Z,9.53
2022-11-23T18:07:03.683Z,11.87
2022-11-23T18:09:30.830Z,10.40
2022-11-23T18:11:57.841Z,8.53
2022-11-23T18:14:28.751Z,8.23
2022-11-23T18:16:56.423Z,9.93
2022-11-23T18:19:23.194Z,9.87
2022-11-23T18:21:49.915Z,8.97
2022-11-23T18:24:16.485Z,11.17
2022-11-23T18:26:43.094Z,10.20
2022-11-23T18:29:15.552Z,9.23
2022-11-23T18:31:43.588Z,10.50
2022-11-23T18:34:10.402Z,10.73
2022-11-23T18:36:36.855Z,4.93
2022-11-23T18:39:03.416Z,6.50
2022-11-23T18:41:29.894Z,5.97
2022-11-23T18:43:56.350Z,6.50
2022-11-23T18:46:23.277Z,6.30
2022-11-23T18:48:50.375Z,7.00
2022-11-23T18:51:17.679Z,6.80
2022-11-23T18:53:48.198Z,5.30
2022-11-23T18:56:14.825Z,6.63
2022-11-23T18:58:43.146Z,6.77
2022-11-23T19:01:12.135Z,6.13
2022-11-23T19:03:42.657Z,6.60
2022-11-23T19:06:13.533Z,6.60
2022-11-23T19:08:41.976Z,6.17
2022-11-23T19:11:15.815Z,6.27
2022-11-23T19:13:42.417Z,5.90
2022-11-23T19:16:10.002Z,6.87
2022-11-23T19:18:36.646Z,6.43
2022-11-23T19:21:17.216Z,6.37
2022-11-23T19:23:44.789Z,5.20
2022-11-23T19:26:11.263Z,6.20
2022-11-23T19:28:38.058Z,6.10
2022-11-23T19:31:11.922Z,6.37
2022-11-23T19:33:38.709Z,5.80
2022-11-23T19:36:14.187Z,5.30
2022-11-23T19:38:41.178Z,6.17
2022-11-23T19:41:07.910Z,6.40
2022-11-23T19:43:34.687Z,7.13
2022-11-23T19:46:03.568Z,5.50
2022-11-23T19:48:31.345Z,7.00
2022-11-23T19:51:00.209Z,5.57
2022-11-23T19:53:30.702Z,6.50
2022-11-23T19:56:05.550Z,6.40
2022-11-23T19:58:33.405Z,6.50
2022-11-23T20:01:05.037Z,5.23
2022-11-23T20:03:34.345Z,5.30
2022-11-23T20:06:02.798Z,4.50
2022-11-23T20:08:29.560Z,5.10
2022-11-23T20:10:56.437Z,8.63
2022-11-23T20:13:23.513Z,4.40
2022-11-23T20:15:50.339Z,5.17
2022-11-23T20:18:17.994Z,5.00
2022-11-23T20:20:46.832Z,5.40
2022-11-23T20:23:14.883Z,5.63
2022-11-23T20:25:42.071Z,5.13
2022-11-23T20:28:12.106Z,4.30
2022-11-23T20:30:38.687Z,4.77
2022-11-23T20:33:05.198Z,4.10
2022-11-23T20:35:31.962Z,4.30
2022-11-23T20:37:58.519Z,4.33
2022-11-23T20:40:25.067Z,5.50
2022-11-23T20:42:51.545Z,5.33
2022-11-23T20:45:18.102Z,4.53
2022-11-23T20:47:46.435Z,4.10
2022-11-23T20:50:12.982Z,3.80
2022-11-23T20:52:39.532Z,3.67
2022-11-23T20:55:06.484Z,4.50
2022-11-23T20:57:33.760Z,5.20
2022-11-23T21:00:00.272Z,5.13
2022-11-23T21:02:26.912Z,6.20
2022-11-23T21:04:53.427Z,5.70
2022-11-23T21:07:21.041Z,5.27
2022-11-23T21:09:47.571Z,3.93
2022-11-23T21:12:32.598Z,3.50
2022-11-23T21:14:59.251Z,4.53
2022-11-23T21:17:25.763Z,3.83
2022-11-23T21:19:52.368Z,5.47
2022-11-23T21:22:19.020Z,4.63
2022-11-23T21:24:45.664Z,3.20
2022-11-23T21:27:13.384Z,4.40
2022-11-23T21:29:40.265Z,4.57
2022-11-23T21:32:06.792Z,3.90
2022-11-23T21:34:33.917Z,5.77
2022-11-23T21:37:01.035Z,7.20
2022-11-23T21:39:30.066Z,6.43
2022-11-23T21:41:56.564Z,6.77
2022-11-23T21:44:23.241Z,4.50
2022-11-23T21:46:49.916Z,4.50
2022-11-23T21:49:16.572Z,5.23
2022-11-23T21:51:44.547Z,8.80
2022-11-23T21:54:14.211Z,7.50
2022-11-23T21:56:41.865Z,5.70
2022-11-23T21:59:08.757Z,6.60
2022-11-23T22:01:36.303Z,5.20
2022-11-23T22:04:11.414Z,5.50
2022-11-23T22:06:39.069Z,4.77
2022-11-23T22:09:07.608Z,3.73
2022-11-23T22:11:35.616Z,4.73
2022-11-23T22:14:04.958Z,4.07
2022-11-23T22:16:36.950Z,4.13
2022-11-23T22:19:05.669Z,4.57
2022-11-23T22:21:34.498Z,4.20
2022-11-23T22:24:01.348Z,4.00
2022-11-23T22:26:27.995Z,5.00
2022-11-23T22:28:55.436Z,10.17
2022-11-23T22:31:24.770Z,6.37
2022-11-23T22:33:52.815Z,7.23
2022-11-23T22:36:21.337Z,6.10
2022-11-23T22:38:48.269Z,8.47
2022-11-23T22:41:16.839Z,6.63
2022-11-23T22:43:43.795Z,6.43
2022-11-23T22:46:15.428Z,6.63
2022-11-23T22:48:43.654Z,5.80
2022-11-23T22:51:12.309Z,6.57
2022-11-23T22:53:44.549Z,7.03
2022-11-23T22:56:16.668Z,6.10
2022-11-23T22:58:44.693Z,6.30
2022-11-23T23:01:13.697Z,7.73
2022-11-23T23:03:40.930Z,6.40
2022-11-23T23:06:07.780Z,6.07
2022-11-23T23:08:34.454Z,5.40
2022-11-23T23:11:05.803Z,6.37
2022-11-23T23:13:34.204Z,6.10
2022-11-23T23:16:02.074Z,5.43
2022-11-23T23:18:28.832Z,5.23
2022-11-23T23:21:10.997Z,4.60
2022-11-23T23:23:38.429Z,4.37
2022-11-23T23:26:05.723Z,5.50
2022-11-23T23:28:32.347Z,4.40
2022-11-23T23:31:03.278Z,4.50
2022-11-23T23:33:32.255Z,4.80
2022-11-23T23:36:12.340Z,4.63
2022-11-23T23:38:39.074Z,5.03
2022-11-23T23:41:06.599Z,5.77
2022-11-23T23:43:33.875Z,5.37
2022-11-23T23:46:02.000Z,4.33
2022-11-23T23:48:30.000Z,5.10
2022-11-23T23:50:56.518Z,4.20
2022-11-23T23:53:23.115Z,4.57
2022-11-23T23:55:57.302Z,4.70
2022-11-23T23:58:23.991Z,5.37
